Logan Peak - 24 Hour Table
Date & TimeSolar
Radiation
(W/m²)
Wind
Speed
(mph)
Wind
Direction
(degrees)
Air
Temperature
(°F)
Relative
Humidity
(%)
Barometeric
Pressure
(inHg)
Max
Wind
Speed
(mph)
2024/05/26 01:00 0 24.7 250 30.2 100 29.77 34.9
2024/05/26 00:00 0 24.3 257 29.5 100 29.78 35.3
2024/05/25 23:00 0 21.4 264 30.3 100 29.76 30.9
2024/05/25 22:00 0 18.7 281 30.7 100 29.76 30.9
2024/05/25 21:00 0 18.9 283 30.6 100 29.78 29.8
2024/05/25 20:00 15 18.8 279 30.9 100 29.74 34.2
2024/05/25 19:00 78 20.3 255 31.5 100 29.74 34.4
2024/05/25 18:00 105 16.4 274 31.7 100 29.72 30.6
2024/05/25 17:00 247 16.6 290 31.3 100 29.70 27.3
2024/05/25 16:00 202 16.9 267 30.7 100 29.69 26.4
2024/05/25 15:00 292 15.5 282 30.8 100 29.68 25.5
2024/05/25 14:00 288 15.6 270 31.0 100 29.67 27.7
2024/05/25 13:00 146 14.9 233 30.8 100 29.66 30.0
2024/05/25 12:00 47 17.4 208 31.0 100 29.66 25.9
2024/05/25 11:00 76 18.7 209 32.2 100 29.67 25.9
2024/05/25 10:00 185 15.8 199 33.3 100 29.67 24.8
2024/05/25 09:00 114 11.3 234 33.5 100 29.65 21.5
2024/05/25 08:00 117 13.6 224 33.9 98 29.65 24.2
2024/05/25 07:00 131 18.6 212 33.6 96 29.67 29.5
2024/05/25 06:00 22 22.5 204 32.9 100 29.64 30.0
2024/05/25 05:00 0 23.3 201 33.3 96 29.64 33.6
2024/05/25 04:00 0 23.9 203 34.2 90 29.65 35.6
2024/05/25 03:00 0 21.4 215 35.0 82 29.65 28.2
2024/05/25 02:00 0 19.0 208 35.4 76 29.66 25.7